Time;durP1;ratioP1;P1;durP2;ratioP2;P2;SDS_P1;SDS_P2;PMS_P1;PMS_P2;Temp;Humidity;BMP_temperature;BMP_pressure;BME280_temperature;BME280_humidity;BME280_pressure;Samples;Min_cycle;Max_cycle;Signal;HPM_P1;HPM_P2
2021/08/09 00:00:49;;;;;;;3.55;1.20;;;22.70;69.80;;;;;;4990213;28;20058;-54
2021/08/09 00:03:53;;;;;;;1.75;0.95;;;22.70;70.10;;;;;;4990134;28;20118;-53
2021/08/09 00:06:57;;;;;;;5.03;0.80;;;22.70;70.00;;;;;;4989913;28;20049;-51
2021/08/09 00:10:02;;;;;;;1.77;0.90;;;22.60;70.20;;;;;;4989955;28;20417;-54
2021/08/09 00:13:07;;;;;;;2.75;0.77;;;22.70;70.50;;;;;;5021074;22;20057;-55
2021/08/09 00:16:11;;;;;;;2.92;0.75;;;22.60;70.50;;;;;;5039036;28;20538;-54
2021/08/09 00:19:15;;;;;;;2.08;0.90;;;22.60;70.60;;;;;;5034651;28;20040;-54
2021/08/09 00:22:18;;;;;;;6.15;1.10;;;22.50;70.80;;;;;;5025306;28;20044;-55
2021/08/09 00:25:23;;;;;;;1.85;1.05;;;22.50;70.90;;;;;;5001634;28;20057;-56
2021/08/09 00:28:27;;;;;;;2.60;1.02;;;22.50;70.80;;;;;;4991380;28;20045;-57
2021/08/09 00:31:31;;;;;;;2.35;1.15;;;22.50;71.10;;;;;;5015767;28;20048;-55
2021/08/09 00:34:38;;;;;;;2.05;0.90;;;22.40;71.10;;;;;;5022104;28;20499;-55
2021/08/09 00:37:43;;;;;;;1.73;0.80;;;22.40;71.10;;;;;;5027187;28;20508;-54
2021/08/09 00:40:47;;;;;;;2.42;0.80;;;22.40;71.20;;;;;;5023875;28;20296;-54
2021/08/09 00:43:52;;;;;;;1.15;0.75;;;22.40;71.20;;;;;;5024019;28;20045;-55
2021/08/09 00:46:57;;;;;;;2.75;0.90;;;22.40;71.80;;;;;;5023309;28;20048;-56
2021/08/09 00:50:03;;;;;;;2.08;1.10;;;22.40;71.20;;;;;;5032919;28;20036;-59
2021/08/09 00:53:09;;;;;;;2.50;1.00;;;22.40;71.40;;;;;;5043730;28;20044;-54
2021/08/09 00:56:16;;;;;;;1.83;0.70;;;22.30;71.30;;;;;;5043647;28;20040;-60
2021/08/09 00:59:22;;;;;;;7.60;0.80;;;22.30;71.30;;;;;;5042895;28;20040;-56
2021/08/09 01:02:27;;;;;;;1.23;0.80;;;22.30;71.50;;;;;;5043254;28;20064;-56
2021/08/09 01:05:33;;;;;;;1.48;0.93;;;22.20;71.70;;;;;;5003702;28;20049;-58
2021/08/09 01:09:02;;;;;;;1.52;0.90;;;22.20;71.80;;;;;;4992127;28;20405;-55
2021/08/09 01:12:25;;;;;;;2.33;1.15;;;22.20;72.00;;;;;;4992426;28;20097;-56
2021/08/09 01:15:33;;;;;;;1.92;0.90;;;22.10;72.20;;;;;;4992344;28;20053;-55
2021/08/09 01:18:40;;;;;;;2.45;1.00;;;22.10;71.90;;;;;;4980592;28;20041;-57
2021/08/09 01:21:46;;;;;;;3.33;1.00;;;22.10;72.10;;;;;;4991972;28;20057;-56
2021/08/09 01:25:06;;;;;;;2.10;1.27;;;22.10;72.20;;;;;;4992025;28;20523;-56
2021/08/09 01:28:10;;;;;;;4.35;1.10;;;22.00;74.40;;;;;;4992737;28;20044;-59
2021/08/09 01:31:16;;;;;;;1.75;1.08;;;21.60;74.90;;;;;;4992934;28;20555;-54
2021/08/09 01:34:23;;;;;;;2.60;1.13;;;21.40;75.80;;;;;;4991888;28;20061;-57
2021/08/09 01:37:31;;;;;;;1.60;0.88;;;21.20;76.10;;;;;;5002492;28;20033;-57
2021/08/09 01:40:36;;;;;;;1.92;0.82;;;21.20;76.10;;;;;;5041329;28;20056;-58
2021/08/09 01:43:43;;;;;;;1.63;1.17;;;21.10;76.30;;;;;;5042797;28;20055;-57
2021/08/09 01:46:49;;;;;;;8.90;1.50;;;21.20;75.10;;;;;;5031253;28;20052;-54
2021/08/09 01:49:54;;;;;;;2.42;0.93;;;21.40;74.70;;;;;;5042409;28;20060;-55
2021/08/09 01:52:58;;;;;;;1.92;1.10;;;21.50;74.40;;;;;;5042528;28;20056;-56
2021/08/09 01:56:04;;;;;;;4.93;1.23;;;21.60;74.30;;;;;;5042649;28;20935;-55
2021/08/09 01:59:09;;;;;;;2.13;0.95;;;21.70;74.00;;;;;;5042003;28;20049;-59
2021/08/09 02:02:23;;;;;;;5.47;1.40;;;21.80;74.60;;;;;;5042447;28;20044;-56
2021/08/09 02:05:28;;;;;;;2.08;1.23;;;21.20;77.50;;;;;;5031046;28;20060;-55
2021/08/09 02:08:41;;;;;;;2.88;1.17;;;20.70;79.70;;;;;;5042136;28;20041;-58
2021/08/09 02:12:04;;;;;;;3.10;1.13;;;20.30;80.90;;;;;;5042060;28;20506;-56
2021/08/09 02:15:11;;;;;;;2.65;1.20;;;20.20;81.50;;;;;;5042022;28;20048;-54
2021/08/09 02:18:27;;;;;;;5.50;1.30;;;20.00;82.40;;;;;;5030254;28;20072;-56
2021/08/09 02:21:55;;;;;;;2.35;1.23;;;19.90;83.00;;;;;;5041806;28;20044;-58
2021/08/09 02:25:10;;;;;;;4.38;1.40;;;19.80;83.90;;;;;;5011030;28;20044;-54
2021/08/09 02:28:25;;;;;;;8.15;1.58;;;19.70;85.60;;;;;;5030040;28;20032;-55
2021/08/09 02:31:31;;;;;;;3.00;1.45;;;19.70;85.50;;;;;;5029221;28;20065;-54
2021/08/09 02:34:37;;;;;;;2.92;1.30;;;19.80;84.60;;;;;;5040953;28;20044;-56
2021/08/09 02:37:45;;;;;;;4.57;1.48;;;19.90;83.80;;;;;;5022443;28;20045;-57
2021/08/09 02:40:50;;;;;;;4.65;1.63;;;19.60;85.80;;;;;;5021167;28;20602;-55
2021/08/09 02:43:56;;;;;;;3.05;1.30;;;19.30;86.80;;;;;;5021782;28;20533;-54
2021/08/09 02:47:01;;;;;;;5.18;1.88;;;19.30;87.60;;;;;;5021402;28;20037;-57
2021/08/09 02:50:09;;;;;;;4.70;1.73;;;19.30;88.00;;;;;;5021336;28;20045;-57
2021/08/09 02:53:19;;;;;;;4.22;1.52;;;19.30;87.80;;;;;;5010712;28;20424;-54
2021/08/09 02:56:26;;;;;;;3.15;1.35;;;19.40;87.40;;;;;;5021193;28;20036;-56
2021/08/09 02:59:31;;;;;;;4.50;1.50;;;19.40;87.20;;;;;;5020692;28;20515;-58
2021/08/09 03:02:40;;;;;;;2.88;1.40;;;19.50;86.80;;;;;;5021228;28;20048;-53
2021/08/09 03:05:45;;;;;;;3.70;1.30;;;19.50;86.70;;;;;;5021080;28;20037;-54
2021/08/09 03:08:50;;;;;;;3.13;1.58;;;19.50;86.30;;;;;;5021071;28;20041;-53
2021/08/09 03:11:54;;;;;;;3.22;1.30;;;19.60;86.10;;;;;;5009851;28;20045;-55
2021/08/09 03:15:01;;;;;;;2.58;1.40;;;19.70;85.80;;;;;;5021040;28;20052;-56
2021/08/09 03:18:05;;;;;;;2.38;1.42;;;19.70;85.70;;;;;;5009408;28;20052;-57
2021/08/09 03:21:10;;;;;;;4.22;2.03;;;19.70;85.80;;;;;;5009127;28;20044;-56
2021/08/09 03:24:17;;;;;;;3.63;1.42;;;19.70;85.80;;;;;;5009419;28;20064;-55
2021/08/09 03:27:22;;;;;;;4.65;1.52;;;19.60;86.40;;;;;;5010579;28;20041;-54
2021/08/09 03:30:29;;;;;;;5.50;1.60;;;19.60;86.50;;;;;;5020774;28;20044;-55
2021/08/09 03:33:34;;;;;;;3.00;1.40;;;19.50;87.30;;;;;;5021260;28;20049;-57
2021/08/09 03:36:44;;;;;;;2.88;1.77;;;19.10;89.50;;;;;;5020914;28;20511;-54
2021/08/09 03:39:48;;;;;;;5.93;1.70;;;18.60;90.70;;;;;;4990770;28;20049;-54
2021/08/09 03:42:53;;;;;;;3.00;1.58;;;18.50;91.10;;;;;;4990976;28;20046;-54
2021/08/09 03:45:57;;;;;;;5.40;1.70;;;18.40;91.40;;;;;;4990500;28;20041;-57
2021/08/09 03:49:09;;;;;;;4.43;1.70;;;18.40;91.50;;;;;;4989916;28;20113;-56
2021/08/09 03:52:14;;;;;;;6.40;1.75;;;18.40;91.10;;;;;;4989792;28;20053;-56
2021/08/09 03:55:18;;;;;;;4.40;1.55;;;18.40;91.10;;;;;;4990798;28;20049;-57
2021/08/09 03:58:23;;;;;;;5.78;1.75;;;18.40;91.10;;;;;;4990513;28;20110;-56
2021/08/09 04:01:27;;;;;;;3.83;1.20;;;18.50;90.80;;;;;;4990339;28;20045;-55
2021/08/09 04:04:32;;;;;;;3.72;1.55;;;18.50;90.70;;;;;;5000720;28;20500;-58
2021/08/09 04:07:38;;;;;;;2.45;1.30;;;18.60;90.50;;;;;;5001038;28;20049;-55
2021/08/09 04:10:43;;;;;;;3.58;1.65;;;18.60;90.40;;;;;;4989903;28;20517;-55
2021/08/09 04:13:47;;;;;;;5.43;1.50;;;18.60;90.40;;;;;;5000296;28;20110;-54
2021/08/09 04:16:51;;;;;;;3.58;1.63;;;18.60;90.40;;;;;;5000518;28;20041;-58
2021/08/09 04:19:56;;;;;;;4.38;1.90;;;18.60;90.40;;;;;;5000132;28;20049;-56
2021/08/09 04:23:00;;;;;;;2.35;1.30;;;18.70;90.40;;;;;;4989703;28;20053;-59
2021/08/09 04:26:05;;;;;;;2.45;1.40;;;18.60;90.40;;;;;;5000323;28;20045;-55
2021/08/09 04:29:09;;;;;;;2.60;1.30;;;18.60;90.40;;;;;;4989796;28;20050;-53
2021/08/09 04:32:19;;;;;;;3.58;1.60;;;18.70;90.30;;;;;;4988278;28;20053;-57
2021/08/09 04:35:24;;;;;;;1.63;1.10;;;18.80;90.00;;;;;;5000428;28;20045;-55
2021/08/09 04:38:31;;;;;;;3.72;1.50;;;18.90;89.60;;;;;;5027772;28;20044;-54
2021/08/09 04:41:35;;;;;;;2.88;1.20;;;19.00;88.90;;;;;;5039468;28;20048;-54
2021/08/09 04:44:40;;;;;;;4.60;1.55;;;19.10;88.40;;;;;;5028387;28;20052;-54
2021/08/09 04:47:44;;;;;;;4.82;1.50;;;19.30;87.90;;;;;;5039722;28;20040;-54
2021/08/09 04:50:50;;;;;;;7.25;1.52;;;19.40;87.60;;;;;;5039818;28;20049;-55
2021/08/09 04:53:55;;;;;;;2.15;1.30;;;19.50;87.10;;;;;;5039612;28;20044;-55
2021/08/09 04:57:00;;;;;;;1.98;1.17;;;19.60;87.10;;;;;;5039707;28;20052;-54
2021/08/09 05:00:05;;;;;;;3.92;1.60;;;19.60;86.70;;;;;;5039466;28;20129;-54
2021/08/09 05:03:12;;;;;;;8.95;1.90;;;19.70;86.70;;;;;;5039162;28;20404;-57
2021/08/09 05:06:18;;;;;;;14.77;2.40;;;19.40;89.30;;;;;;5028130;28;20045;-55
2021/08/09 05:09:23;;;;;;;4.05;1.77;;;19.20;90.30;;;;;;5027953;28;20044;-53
2021/08/09 05:12:28;;;;;;;6.15;1.63;;;20.20;90.40;;;;;;5039191;28;20044;-52
2021/08/09 05:15:38;;;;;;;2.83;1.35;;;22.90;86.20;;;;;;5041768;28;20057;-55
2021/08/09 05:18:42;;;;;;;10.18;2.05;;;25.30;81.60;;;;;;5031082;28;20530;-54
2021/08/09 05:21:46;;;;;;;5.05;1.70;;;27.00;78.10;;;;;;5032009;28;20040;-54
2021/08/09 05:24:50;;;;;;;12.65;1.80;;;28.40;75.60;;;;;;5032288;28;20052;-55
2021/08/09 05:27:54;;;;;;;4.63;1.60;;;29.60;73.80;;;;;;5032190;28;20507;-54
2021/08/09 05:30:58;;;;;;;4.88;2.08;;;30.40;72.50;;;;;;5032528;28;20044;-55
2021/08/09 05:34:03;;;;;;;7.45;2.00;;;30.90;71.40;;;;;;5042624;28;20044;-55
2021/08/09 05:37:07;;;;;;;6.80;1.60;;;30.70;72.00;;;;;;5029824;28;20044;-55
2021/08/09 05:40:12;;;;;;;6.55;1.60;;;31.20;71.50;;;;;;5031507;28;20033;-55
2021/08/09 05:43:16;;;;;;;3.47;1.92;;;28.30;71.60;;;;;;5027349;28;20044;-54
2021/08/09 05:46:21;;;;;;;6.43;1.60;;;26.50;74.40;;;;;;5042832;28;20711;-54
2021/08/09 05:49:25;;;;;;;5.57;1.65;;;26.40;75.50;;;;;;5002574;28;20507;-56
2021/08/09 05:52:32;;;;;;;2.08;1.50;;;27.10;75.50;;;;;;5002517;28;20053;-55
2021/08/09 05:55:45;;;;;;;6.03;1.75;;;27.40;74.70;;;;;;4997698;28;20048;-55
2021/08/09 05:58:50;;;;;;;6.25;1.75;;;28.50;73.70;;;;;;5042008;28;20061;-54
2021/08/09 06:01:55;;;;;;;2.63;1.45;;;27.20;74.10;;;;;;5041703;28;20048;-58
2021/08/09 06:05:03;;;;;;;2.58;1.15;;;27.70;74.30;;;;;;5030591;28;20412;-55
2021/08/09 06:08:09;;;;;;;2.40;1.30;;;29.00;73.00;;;;;;5031314;28;20045;-54
2021/08/09 06:11:14;;;;;;;4.32;1.50;;;29.00;72.90;;;;;;5041905;28;20032;-55
2021/08/09 06:14:18;;;;;;;2.70;1.48;;;30.40;71.30;;;;;;5026534;28;20514;-58
2021/08/09 06:17:22;;;;;;;2.58;1.25;;;30.80;70.60;;;;;;5011639;28;20045;-55
2021/08/09 06:20:26;;;;;;;6.28;1.10;;;31.50;69.80;;;;;;5011387;28;20401;-55
2021/08/09 06:23:31;;;;;;;3.63;1.13;;;31.70;69.40;;;;;;5010273;28;20057;-55
2021/08/09 06:26:36;;;;;;;2.83;1.15;;;32.10;69.10;;;;;;5010660;28;20033;-58
2021/08/09 06:29:40;;;;;;;4.15;1.40;;;32.30;68.60;;;;;;5011250;28;20053;-55
2021/08/09 06:32:46;;;;;;;5.53;1.60;;;32.30;67.90;;;;;;5021613;28;20476;-57
2021/08/09 06:35:52;;;;;;;2.45;1.40;;;32.50;67.80;;;;;;5010569;28;20056;-58
2021/08/09 06:38:58;;;;;;;3.38;1.27;;;33.00;67.80;;;;;;5021728;28;20057;-57
2021/08/09 06:42:04;;;;;;;3.22;1.50;;;33.20;67.30;;;;;;5021922;28;20130;-58
2021/08/09 06:45:17;;;;;;;5.78;1.70;;;33.60;67.50;;;;;;5021757;28;20041;-55
2021/08/09 06:48:22;;;;;;;2.33;1.05;;;31.70;67.00;;;;;;5035963;28;20044;-57
2021/08/09 06:51:27;;;;;;;4.00;1.45;;;31.40;68.30;;;;;;5029891;28;20041;-54
2021/08/09 06:54:31;;;;;;;3.42;1.10;;;29.60;69.30;;;;;;5030352;28;20499;-53
2021/08/09 06:57:42;;;;;;;4.72;1.23;;;29.20;70.90;;;;;;5041560;28;20049;-55
2021/08/09 07:00:48;;;;;;;4.55;1.63;;;29.70;71.00;;;;;;5030191;28;20352;-54
2021/08/09 07:03:52;;;;;;;3.90;1.30;;;29.50;70.90;;;;;;5029712;28;20044;-56
2021/08/09 07:06:56;;;;;;;4.78;1.80;;;29.50;70.30;;;;;;5041333;28;20378;-54
2021/08/09 07:10:02;;;;;;;4.82;1.25;;;29.70;70.40;;;;;;5040985;28;20431;-57
2021/08/09 07:13:10;;;;;;;4.95;1.33;;;30.50;68.70;;;;;;5040675;28;20053;-54
2021/08/09 07:16:16;;;;;;;2.75;1.20;;;31.00;68.60;;;;;;5040912;28;20511;-60
2021/08/09 07:19:20;;;;;;;7.43;1.77;;;31.40;68.40;;;;;;5041226;28;20049;-54
2021/08/09 07:22:25;;;;;;;6.05;1.17;;;32.30;67.40;;;;;;5029284;28;20044;-54
2021/08/09 07:25:30;;;;;;;3.83;1.13;;;32.80;65.80;;;;;;5041101;28;20045;-56
2021/08/09 07:28:34;;;;;;;2.38;1.02;;;33.60;65.70;;;;;;5029436;28;20048;-56
2021/08/09 07:31:38;;;;;;;4.03;1.00;;;33.10;62.90;;;;;;5040824;28;20044;-57
2021/08/09 07:34:42;;;;;;;3.10;1.40;;;31.30;64.20;;;;;;5040660;28;20052;-56
2021/08/09 07:37:47;;;;;;;1.70;1.08;;;32.10;63.90;;;;;;5028356;28;20518;-56
2021/08/09 07:40:52;;;;;;;2.80;1.48;;;32.40;64.60;;;;;;5030037;28;20041;-54
2021/08/09 07:43:56;;;;;;;4.00;1.10;;;34.10;63.20;;;;;;5029641;28;20036;-55
2021/08/09 07:47:00;;;;;;;3.92;1.45;;;34.20;62.00;;;;;;5025972;28;20117;-57
2021/08/09 07:50:06;;;;;;;6.10;1.20;;;31.40;65.00;;;;;;5009288;28;20045;-53
2021/08/09 07:53:10;;;;;;;4.68;1.27;;;33.80;64.40;;;;;;5009412;28;20052;-53
2021/08/09 07:56:15;;;;;;;2.08;1.23;;;34.70;62.60;;;;;;5020655;28;20515;-57
2021/08/09 07:59:21;;;;;;;2.53;1.30;;;36.00;63.20;;;;;;5019991;28;20054;-55
2021/08/09 08:02:28;;;;;;;3.55;1.00;;;37.50;61.90;;;;;;5020046;28;20125;-54
2021/08/09 08:05:33;;;;;;;5.55;1.25;;;38.20;59.80;;;;;;5020232;28;20073;-55
2021/08/09 08:08:37;;;;;;;2.22;1.10;;;37.00;60.80;;;;;;5020527;28;20516;-54
2021/08/09 08:11:43;;;;;;;3.08;1.20;;;37.60;60.80;;;;;;5009679;28;20345;-54
2021/08/09 08:14:47;;;;;;;5.35;1.30;;;38.70;60.10;;;;;;5009294;28;20307;-53
2021/08/09 08:17:54;;;;;;;9.23;1.60;;;37.40;61.20;;;;;;5008724;28;20040;-54
2021/08/09 08:20:59;;;;;;;5.43;1.38;;;36.70;61.40;;;;;;5020163;28;20049;-55
2021/08/09 08:24:04;;;;;;;5.03;1.80;;;36.00;62.20;;;;;;5019842;28;20988;-55
2021/08/09 08:27:08;;;;;;;4.78;1.60;;;36.00;62.70;;;;;;5020126;28;20041;-55
2021/08/09 08:30:13;;;;;;;1.80;1.25;;;36.50;63.10;;;;;;5009623;28;20045;-54
2021/08/09 08:33:18;;;;;;;8.15;1.67;;;36.60;64.80;;;;;;5019938;28;20519;-53
2021/08/09 08:36:23;;;;;;;4.50;1.50;;;35.10;65.10;;;;;;5018985;28;20065;-55
2021/08/09 08:39:29;;;;;;;8.32;1.67;;;37.50;63.70;;;;;;5010038;28;20741;-54
2021/08/09 08:42:34;;;;;;;7.28;1.52;;;38.00;63.40;;;;;;5012119;28;20057;-55
2021/08/09 08:45:39;;;;;;;5.13;1.65;;;39.20;62.70;;;;;;5016343;28;20419;-56
2021/08/09 08:48:46;;;;;;;4.57;1.70;;;39.50;63.10;;;;;;5040457;28;20415;-55
2021/08/09 08:51:51;;;;;;;4.57;1.65;;;37.70;64.10;;;;;;5032058;28;20261;-54
2021/08/09 08:54:58;;;;;;;4.43;2.00;;;38.80;64.70;;;;;;5029469;28;20515;-57
2021/08/09 08:58:07;;;;;;;7.45;2.03;;;40.30;63.60;;;;;;5012785;28;20033;-54
2021/08/09 09:01:35;;;;;;;6.72;2.00;;;38.70;64.30;;;;;;5013163;28;20041;-59
2021/08/09 09:04:39;;;;;;;6.32;2.17;;;36.40;68.40;;;;;;5012540;28;20053;-56
2021/08/09 09:07:49;;;;;;;9.32;2.05;;;39.10;66.30;;;;;;5012631;28;20049;-60
2021/08/09 09:10:53;;;;;;;7.63;2.10;;;38.90;65.00;;;;;;5017203;28;20036;-55
2021/08/09 09:14:03;;;;;;;3.70;2.08;;;40.80;64.00;;;;;;5032121;28;20056;-57
2021/08/09 09:17:07;;;;;;;10.57;2.75;;;40.40;64.30;;;;;;5032668;28;20412;-53
2021/08/09 09:20:31;;;;;;;8.07;2.13;;;39.30;65.40;;;;;;5032584;28;20052;-55
2021/08/09 09:23:35;;;;;;;6.95;1.90;;;37.50;66.70;;;;;;5032119;28;20049;-55
2021/08/09 09:26:41;;;;;;;7.50;2.10;;;39.90;65.30;;;;;;5032176;28;20041;-55
2021/08/09 09:29:45;;;;;;;8.00;2.65;;;42.30;62.90;;;;;;5032130;28;20049;-54
2021/08/09 09:33:03;;;;;;;7.68;2.40;;;40.60;62.80;;;;;;5032380;28;20411;-60
2021/08/09 09:36:08;;;;;;;6.22;2.50;;;42.80;61.60;;;;;;5032154;28;20044;-58
2021/08/09 09:39:35;;;;;;;9.25;2.42;;;40.30;61.40;;;;;;5032126;28;20052;-54
2021/08/09 09:42:41;;;;;;;5.68;1.60;;;40.40;62.10;;;;;;5032325;28;20044;-54
2021/08/09 09:45:55;;;;;;;5.25;1.70;;;44.00;57.50;;;;;;5022318;28;20396;-55
2021/08/09 09:49:02;;;;;;;4.63;1.75;;;40.50;57.10;;;;;;5012346;28;20041;-54
2021/08/09 09:52:06;;;;;;;7.30;1.80;;;39.90;57.90;;;;;;5012478;28;20045;-55
2021/08/09 09:55:12;;;;;;;7.72;2.20;;;40.80;59.10;;;;;;5012173;28;20045;-56
2021/08/09 09:58:17;;;;;;;6.13;1.60;;;44.60;58.00;;;;;;5011844;28;20041;-56
2021/08/09 10:01:23;;;;;;;4.60;1.92;;;41.90;55.20;;;;;;5011352;28;20249;-55
2021/08/09 10:04:28;;;;;;;5.80;2.00;;;40.90;56.50;;;;;;5012235;28;20052;-54
2021/08/09 10:07:35;;;;;;;4.22;1.80;;;40.70;57.40;;;;;;5011865;28;20416;-58
2021/08/09 10:10:49;;;;;;;4.22;1.73;;;40.70;58.50;;;;;;5011625;28;20401;-55
2021/08/09 10:13:56;;;;;;;3.90;1.70;;;42.10;57.50;;;;;;5011220;28;20057;-55
2021/08/09 10:17:03;;;;;;;7.30;1.63;;;40.20;58.80;;;;;;5011588;28;20546;-61
2021/08/09 10:20:09;;;;;;;4.25;1.80;;;43.00;58.00;;;;;;5011361;28;20040;-58
2021/08/09 10:23:13;;;;;;;4.72;1.80;;;44.50;56.50;;;;;;5011399;28;20045;-55
2021/08/09 10:26:20;;;;;;;6.72;2.15;;;44.40;56.70;;;;;;5011162;28;20539;-57
2021/08/09 10:29:25;;;;;;;4.97;2.03;;;39.60;60.30;;;;;;5011099;28;20041;-56
2021/08/09 10:32:45;;;;;;;5.70;2.25;;;37.00;65.00;;;;;;5011407;28;20423;-61
2021/08/09 10:35:51;;;;;;;16.45;2.78;;;38.10;63.70;;;;;;5011062;28;20247;-56
2021/08/09 10:39:00;;;;;;;6.40;2.10;;;41.00;61.60;;;;;;5010912;28;20555;-57
2021/08/09 10:42:05;;;;;;;6.53;2.30;;;39.10;60.90;;;;;;5011222;28;20506;-59
2021/08/09 10:45:11;;;;;;;5.15;1.95;;;42.40;59.90;;;;;;5016089;28;20048;-58
2021/08/09 10:48:41;;;;;;;7.93;2.28;;;44.10;58.90;;;;;;5030401;28;20044;-58
2021/08/09 10:51:51;;;;;;;8.00;1.80;;;42.40;58.60;;;;;;5030997;28;20048;-54
2021/08/09 10:54:55;;;;;;;6.22;2.40;;;41.30;58.90;;;;;;5029651;28;20407;-55
2021/08/09 10:58:04;;;;;;;4.43;2.20;;;37.20;62.00;;;;;;5030525;28;20040;-55
2021/08/09 11:01:10;;;;;;;3.73;1.90;;;40.30;61.40;;;;;;5030558;28;20045;-58
2021/08/09 11:04:14;;;;;;;6.80;2.40;;;39.80;60.90;;;;;;5030506;28;20105;-55
2021/08/09 11:07:19;;;;;;;6.47;2.65;;;39.30;60.00;;;;;;5030028;28;20041;-54
2021/08/09 11:11:00;;;;;;;8.05;1.88;;;40.60;61.00;;;;;;5030168;28;20048;-60
2021/08/09 11:14:07;;;;;;;3.47;1.90;;;41.70;59.60;;;;;;4972241;28;20058;-55
2021/08/09 11:17:11;;;;;;;5.70;2.25;;;44.60;58.10;;;;;;5030225;28;20044;-60
2021/08/09 11:20:25;;;;;;;4.75;2.00;;;42.20;56.30;;;;;;5030790;28;20064;-58
2021/08/09 11:23:46;;;;;;;7.03;2.20;;;40.40;58.70;;;;;;5030467;28;20048;-57
2021/08/09 11:27:03;;;;;;;4.57;1.70;;;42.10;58.40;;;;;;5028862;28;20036;-57
2021/08/09 11:30:08;;;;;;;6.57;2.30;;;42.20;56.70;;;;;;5029095;28;20040;-61
2021/08/09 11:33:25;;;;;;;7.80;2.22;;;42.80;57.70;;;;;;5030037;28;20052;-56
2021/08/09 11:36:29;;;;;;;8.35;1.88;;;42.00;57.40;;;;;;5029588;28;20039;-57
2021/08/09 11:39:40;;;;;;;6.07;2.20;;;43.90;56.30;;;;;;5029753;28;20052;-60
2021/08/09 11:42:50;;;;;;;9.73;2.00;;;44.90;56.00;;;;;;5029637;28;20053;-56
2021/08/09 11:46:00;;;;;;;5.53;2.10;;;45.40;54.80;;;;;;5017758;28;20048;-59
2021/08/09 11:49:09;;;;;;;4.75;2.20;;;43.60;55.50;;;;;;5020477;28;20044;-58
2021/08/09 11:52:20;;;;;;;7.82;2.10;;;41.10;56.60;;;;;;5010026;28;20037;-57
2021/08/09 11:55:25;;;;;;;6.78;2.40;;;42.00;57.10;;;;;;5010109;28;20037;-59
2021/08/09 11:58:30;;;;;;;3.78;2.15;;;43.50;55.30;;;;;;5009477;28;20045;-55
2021/08/09 12:01:41;;;;;;;7.57;2.08;;;44.50;55.10;;;;;;5010008;28;20053;-58
2021/08/09 12:04:45;;;;;;;6.28;2.25;;;41.90;54.90;;;;;;5009937;28;20045;-58
2021/08/09 12:07:58;;;;;;;5.25;1.90;;;41.30;54.20;;;;;;5009246;28;20523;-58
2021/08/09 12:11:09;;;;;;;9.98;1.95;;;41.00;55.30;;;;;;5009834;28;20044;-59
2021/08/09 12:14:14;;;;;;;9.20;2.05;;;43.80;55.20;;;;;;5009717;28;20044;-60
2021/08/09 12:17:22;;;;;;;7.65;2.03;;;44.00;53.40;;;;;;5009509;28;20059;-57
2021/08/09 12:20:26;;;;;;;5.78;2.05;;;43.10;54.00;;;;;;5009782;28;20049;-59
2021/08/09 12:23:30;;;;;;;3.95;2.20;;;42.90;53.70;;;;;;5009932;28;20064;-58
2021/08/09 12:26:34;;;;;;;6.18;2.30;;;42.00;54.30;;;;;;5013948;28;20053;-59
2021/08/09 12:29:38;;;;;;;3.95;1.70;;;41.50;54.30;;;;;;5013498;28;20044;-55
2021/08/09 12:32:56;;;;;;;7.18;2.03;;;42.00;53.90;;;;;;5013695;28;20057;-57
2021/08/09 12:36:00;;;;;;;5.90;2.08;;;42.80;53.40;;;;;;5013939;28;20041;-59
2021/08/09 12:39:06;;;;;;;5.22;1.88;;;43.90;52.50;;;;;;5013234;28;20053;-61
2021/08/09 12:42:16;;;;;;;3.53;1.98;;;43.40;52.50;;;;;;5013716;28;20515;-60
2021/08/09 12:45:20;;;;;;;6.88;2.67;;;44.50;52.40;;;;;;5020638;28;20040;-57
2021/08/09 12:48:24;;;;;;;9.32;2.13;;;44.60;51.80;;;;;;5032081;28;20411;-58
2021/08/09 12:51:29;;;;;;;5.28;2.03;;;43.90;52.40;;;;;;5033602;28;20044;-56
2021/08/09 12:54:34;;;;;;;9.63;2.60;;;40.70;54.10;;;;;;5033165;28;20057;-57
2021/08/09 12:57:39;;;;;;;7.40;2.47;;;38.40;57.70;;;;;;5033062;28;20056;-57
2021/08/09 13:00:43;;;;;;;6.05;2.55;;;37.00;57.90;;;;;;5033165;28;20044;-57
2021/08/09 13:03:48;;;;;;;4.10;1.83;;;37.90;58.10;;;;;;5032771;28;20052;-60
2021/08/09 13:06:56;;;;;;;5.78;2.38;;;38.90;57.10;;;;;;5032954;28;20044;-58
2021/08/09 13:10:00;;;;;;;6.47;2.38;;;38.80;56.50;;;;;;5032465;28;20036;-56
2021/08/09 13:13:05;;;;;;;6.22;2.33;;;38.60;57.70;;;;;;5032958;28;20048;-57
2021/08/09 13:16:10;;;;;;;7.45;2.50;;;39.30;57.40;;;;;;5043557;28;20056;-57
2021/08/09 13:19:14;;;;;;;7.47;2.20;;;39.20;57.00;;;;;;5032230;28;20065;-59
2021/08/09 13:22:18;;;;;;;10.48;2.80;;;39.20;57.10;;;;;;5032862;28;20049;-58
2021/08/09 13:25:23;;;;;;;11.20;2.67;;;36.90;60.10;;;;;;5032762;28;20078;-58
2021/08/09 13:28:27;;;;;;;7.63;2.97;;;37.00;61.10;;;;;;5032203;28;20036;-60
2021/08/09 13:31:32;;;;;;;7.28;3.10;;;36.00;62.10;;;;;;5032514;28;20411;-55
2021/08/09 13:34:36;;;;;;;8.95;3.00;;;36.10;62.90;;;;;;5032267;28;20044;-58
2021/08/09 13:37:41;;;;;;;10.20;4.03;;;36.20;63.40;;;;;;5032626;28;20048;-56
2021/08/09 13:40:46;;;;;;;7.30;3.20;;;35.60;64.30;;;;;;5032348;28;20048;-57
2021/08/09 13:43:50;;;;;;;9.40;3.30;;;35.20;64.90;;;;;;5043026;28;20052;-57
2021/08/09 13:46:54;;;;;;;10.80;3.15;;;35.10;65.60;;;;;;5012530;28;20523;-54
2021/08/09 13:50:02;;;;;;;9.23;3.10;;;34.90;65.00;;;;;;5011637;28;20064;-62
2021/08/09 13:53:07;;;;;;;12.48;3.97;;;35.50;64.90;;;;;;5011965;28;20048;-63
2021/08/09 13:56:12;;;;;;;8.85;3.28;;;35.20;65.20;;;;;;5011462;28;20053;-57
2021/08/09 13:59:16;;;;;;;6.13;3.33;;;36.00;64.90;;;;;;5011760;28;20041;-56
2021/08/09 14:02:20;;;;;;;8.25;3.28;;;37.10;64.30;;;;;;5011880;28;20049;-58
2021/08/09 14:05:25;;;;;;;11.35;3.78;;;37.80;63.00;;;;;;5011775;28;20408;-58
2021/08/09 14:08:30;;;;;;;7.22;3.53;;;36.90;63.00;;;;;;5022207;28;20041;-57
2021/08/09 14:11:34;;;;;;;8.52;3.30;;;36.80;64.20;;;;;;5011503;28;20045;-60
2021/08/09 14:14:38;;;;;;;8.98;3.17;;;36.00;64.20;;;;;;5011505;28;20045;-55
2021/08/09 14:17:42;;;;;;;9.05;3.58;;;36.00;64.80;;;;;;5011412;28;20522;-59
2021/08/09 14:20:47;;;;;;;7.68;3.17;;;36.80;64.80;;;;;;5021863;28;20049;-55
2021/08/09 14:23:52;;;;;;;6.80;3.03;;;37.70;63.70;;;;;;5022130;28;20538;-56
2021/08/09 14:26:59;;;;;;;7.45;3.45;;;35.90;65.30;;;;;;5010568;28;20045;-57
2021/08/09 14:30:06;;;;;;;9.57;3.40;;;36.70;64.90;;;;;;5021672;28;20045;-60
2021/08/09 14:33:11;;;;;;;8.18;3.30;;;35.40;66.60;;;;;;5010286;28;20065;-59
2021/08/09 14:36:18;;;;;;;8.40;3.17;;;36.10;66.30;;;;;;5011103;28;20438;-58
2021/08/09 14:39:24;;;;;;;5.55;2.88;;;37.00;65.10;;;;;;5021332;28;20053;-56
2021/08/09 14:42:33;;;;;;;8.75;2.53;;;37.40;63.70;;;;;;5011159;28;20040;-58
2021/08/09 14:45:39;;;;;;;6.03;2.95;;;37.90;63.60;;;;;;5030881;28;20040;-59
2021/08/09 14:48:45;;;;;;;8.15;2.80;;;37.80;62.90;;;;;;5029489;28;20052;-54
2021/08/09 14:51:50;;;;;;;6.32;2.83;;;35.60;65.10;;;;;;5029520;28;20037;-55
2021/08/09 14:54:55;;;;;;;6.13;2.70;;;36.40;65.70;;;;;;5041532;28;20052;-54
2021/08/09 14:58:00;;;;;;;7.45;2.65;;;36.30;65.60;;;;;;5029389;28;20068;-57
2021/08/09 15:01:05;;;;;;;9.98;2.88;;;36.80;65.90;;;;;;5041342;28;20044;-54
2021/08/09 15:04:20;;;;;;;10.00;4.13;;;37.10;65.90;;;;;;5029658;28;20416;-54
2021/08/09 15:07:31;;;;;;;7.03;2.95;;;37.10;66.50;;;;;;5029648;28;20045;-59
2021/08/09 15:10:41;;;;;;;14.85;4.13;;;37.10;67.20;;;;;;5040637;28;20044;-55
2021/08/09 15:13:45;;;;;;;8.77;3.00;;;37.50;67.50;;;;;;5030439;28;20519;-57
2021/08/09 15:16:49;;;;;;;10.50;3.08;;;37.60;66.80;;;;;;5030556;28;20052;-57
2021/08/09 15:19:53;;;;;;;12.05;3.50;;;37.20;66.70;;;;;;5029865;28;20403;-57
2021/08/09 15:22:57;;;;;;;15.32;3.28;;;36.50;68.20;;;;;;5029995;28;20044;-58
2021/08/09 15:26:01;;;;;;;6.88;2.80;;;36.40;69.10;;;;;;5030322;28;20048;-54
2021/08/09 15:29:06;;;;;;;8.05;3.95;;;36.00;70.00;;;;;;5029658;28;20049;-54
2021/08/09 15:32:10;;;;;;;11.05;3.40;;;36.00;70.20;;;;;;5030225;28;20052;-54
2021/08/09 15:35:14;;;;;;;10.35;3.47;;;35.90;70.70;;;;;;5030040;28;20048;-57
2021/08/09 15:38:18;;;;;;;8.68;3.63;;;35.90;71.10;;;;;;5029693;28;20423;-58
2021/08/09 15:41:22;;;;;;;10.68;3.35;;;35.80;71.50;;;;;;5030013;28;20519;-56
2021/08/09 15:44:26;;;;;;;8.82;3.50;;;35.50;72.10;;;;;;5029926;28;20041;-58
2021/08/09 15:47:33;;;;;;;10.68;3.70;;;35.10;73.20;;;;;;4990980;28;20037;-57
2021/08/09 15:50:38;;;;;;;8.60;3.70;;;34.90;74.10;;;;;;4990266;28;20046;-54
2021/08/09 15:53:43;;;;;;;14.50;3.55;;;35.00;74.80;;;;;;4990362;28;20053;-55
2021/08/09 15:56:48;;;;;;;13.05;4.03;;;35.20;74.70;;;;;;4989796;28;20041;-54
2021/08/09 15:59:53;;;;;;;12.55;4.22;;;34.90;75.20;;;;;;4989158;28;20049;-54
2021/08/09 16:02:57;;;;;;;11.07;4.35;;;34.80;75.80;;;;;;4990131;28;20045;-54
2021/08/09 16:06:03;;;;;;;11.63;4.35;;;34.20;76.90;;;;;;4990313;28;20053;-54
2021/08/09 16:09:08;;;;;;;13.05;3.90;;;34.30;77.90;;;;;;4989672;28;20057;-53